Pointblank, Texas
Current Conditions -  °F | °C
As of 9:53 AM on Monday 22 Dec 2014 (Local Time) from KUTS Reporting Station
Overcast Overcast  
Wind Chill: 64°   Ceiling: 1600
Heat Index: 64°   Visibility: 10mi
Dew Point: 57°   Wind: 20mph
Humidity: 78%   Direction: 210°SSW
Pressure: 29.72"   Gusts: 28mph
Location:  30.74°N, 95.21°W
Report Text: KUTS 221553Z AUTO 21017G24KT 10SM OVC016 18/14 A2972 RMK AO2 SLP061 T01780139
Loading
Personal Weather Stations






























Interactive Weather Map New forecast layout! Learn more

10-Day Weather Forecast

Advertisements
Track Severe Weather on mobile